Time;durP1;ratioP1;P1;durP2;ratioP2;P2;SDS_P1;SDS_P2;PMS_P1;PMS_P2;Temp;Humidity;BMP_temperature;BMP_pressure;BME280_temperature;BME280_humidity;BME280_pressure;Samples;Min_cycle;Max_cycle;Signal;HPM_P1;HPM_P2
2021/12/07 00:00:14;;;;;;;7.97;5.17;;;;;;;1.22;100.00;99663.75;692621;28;923;-49
2021/12/07 00:00:34;;;;;;;6.80;4.75;;;;;;;1.30;100.00;99651.88;690771;28;962;-50
2021/12/07 00:00:55;;;;;;;6.97;4.50;;;;;;;1.30;100.00;99653.56;689591;28;1425;-49
2021/12/07 00:01:16;;;;;;;7.20;5.05;;;;;;;1.27;100.00;99666.41;689329;28;827;-53
2021/12/07 00:01:38;;;;;;;7.43;5.23;;;;;;;1.23;100.00;99659.47;690963;28;4515;-49
2021/12/07 00:02:08;;;;;;;7.82;5.55;;;;;;;1.19;100.00;99664.56;692419;28;3351;-49
2021/12/07 00:02:29;;;;;;;7.88;5.25;;;;;;;1.24;100.00;99661.22;691748;28;1427;-50
2021/12/07 00:02:50;;;;;;;7.70;5.10;;;;;;;1.25;100.00;99657.78;692272;28;835;-50
2021/12/07 00:03:11;;;;;;;7.35;5.32;;;;;;;1.26;100.00;99654.34;691245;28;986;-50
2021/12/07 00:03:31;;;;;;;7.35;5.28;;;;;;;1.20;100.00;99660.28;688089;28;2129;-49
2021/12/07 00:03:53;;;;;;;7.07;5.10;;;;;;;1.21;100.00;99659.44;689248;28;2133;-55
2021/12/07 00:04:14;;;;;;;8.20;5.25;;;;;;;1.16;100.00;99658.47;690317;28;1193;-49
2021/12/07 00:04:34;;;;;;;7.88;5.28;;;;;;;1.09;100.00;99659.22;688688;28;4331;-49
2021/12/07 00:04:55;;;;;;;7.60;5.10;;;;;;;0.99;100.00;99658.19;690363;28;3316;-51
2021/12/07 00:05:16;;;;;;;7.17;5.00;;;;;;;0.95;100.00;99657.25;690514;28;1603;-50
2021/12/07 00:05:36;;;;;;;7.35;5.00;;;;;;;0.93;100.00;99650.34;691532;28;884;-49
2021/12/07 00:05:57;;;;;;;7.63;5.55;;;;;;;0.90;100.00;99653.75;692255;28;1201;-50
2021/12/07 00:06:18;;;;;;;8.00;5.63;;;;;;;0.93;100.00;99651.25;691768;28;839;-50
2021/12/07 00:06:39;;;;;;;7.73;5.30;;;;;;;0.88;100.00;99647.72;692284;28;1102;-49
2021/12/07 00:07:00;;;;;;;7.45;5.38;;;;;;;0.93;100.00;99646.09;692614;28;984;-50
2021/12/07 00:07:21;;;;;;;7.88;5.38;;;;;;;1.01;100.00;99648.78;691827;28;4570;-49
2021/12/07 00:07:43;;;;;;;7.90;5.15;;;;;;;1.00;100.00;99644.50;691995;28;3390;-49
2021/12/07 00:08:03;;;;;;;7.95;5.30;;;;;;;0.96;100.00;99648.72;691796;28;1158;-50
2021/12/07 00:08:25;;;;;;;7.55;5.35;;;;;;;0.95;100.00;99653.84;692034;28;1038;-50
2021/12/07 00:08:46;;;;;;;8.02;5.53;;;;;;;1.01;100.00;99654.81;692631;28;856;-49
2021/12/07 00:09:09;;;;;;;7.90;5.45;;;;;;;1.13;100.00;99658.44;688484;28;998;-49
2021/12/07 00:09:31;;;;;;;7.50;5.00;;;;;;;1.15;100.00;99657.63;687243;28;969;-50
2021/12/07 00:09:51;;;;;;;6.63;4.70;;;;;;;1.24;100.00;99651.75;685432;28;904;-49
2021/12/07 00:10:14;;;;;;;7.45;4.60;;;;;;;1.27;100.00;99653.53;685995;28;902;-49
2021/12/07 00:10:37;;;;;;;7.25;4.80;;;;;;;1.18;100.00;99657.69;683951;28;4431;-49
2021/12/07 00:10:58;;;;;;;6.97;4.88;;;;;;;1.23;100.00;99654.31;688034;28;1224;-49
2021/12/07 00:11:18;;;;;;;7.97;4.78;;;;;;;1.30;100.00;99656.16;690430;28;1083;-48
2021/12/07 00:11:39;;;;;;;7.57;4.80;;;;;;;1.25;100.00;99665.53;692396;28;1066;-50
2021/12/07 00:12:03;;;;;;;6.60;4.82;;;;;;;1.21;100.00;99664.59;692538;28;844;-51
2021/12/07 00:12:28;;;;;;;7.18;4.80;;;;;;;1.15;100.00;99656.75;691920;28;1555;-49
2021/12/07 00:12:48;;;;;;;8.02;4.82;;;;;;;1.19;100.00;99666.25;692986;28;907;-48
2021/12/07 00:13:10;;;;;;;8.13;4.78;;;;;;;1.27;100.00;99672.41;692589;28;3319;-49
2021/12/07 00:13:35;;;;;;;7.50;5.00;;;;;;;1.18;100.00;99675.69;690615;28;4603;-49
2021/12/07 00:13:58;;;;;;;7.45;4.97;;;;;;;1.15;100.00;99673.06;692157;28;1510;-49
2021/12/07 00:14:32;;;;;;;7.97;5.00;;;;;;;1.11;100.00;99672.97;691944;28;978;-49
2021/12/07 00:15:01;;;;;;;7.53;5.00;;;;;;;1.05;100.00;99675.47;692289;28;1074;-53
2021/12/07 00:15:23;;;;;;;7.13;4.90;;;;;;;1.05;100.00;99675.47;691373;28;984;-49
2021/12/07 00:15:45;;;;;;;7.88;5.20;;;;;;;1.03;100.00;99672.84;692318;28;883;-50
2021/12/07 00:16:10;;;;;;;7.20;5.10;;;;;;;0.99;100.00;99671.06;691954;28;3360;-50
2021/12/07 00:16:30;;;;;;;7.88;5.28;;;;;;;0.99;100.00;99676.22;691050;28;4470;-50
2021/12/07 00:16:54;;;;;;;8.40;5.40;;;;;;;1.15;100.00;99679.91;692652;28;1038;-48
2021/12/07 00:17:14;;;;;;;8.50;5.10;;;;;;;1.22;100.00;99673.16;692658;28;951;-50
2021/12/07 00:17:35;;;;;;;8.73;5.18;;;;;;;1.28;100.00;99676.72;692061;28;900;-50
2021/12/07 00:17:55;;;;;;;7.50;5.10;;;;;;;1.34;100.00;99674.25;692105;28;896;-49
2021/12/07 00:18:16;;;;;;;7.53;5.40;;;;;;;1.26;100.00;99675.84;691755;28;1910;-49
2021/12/07 00:18:38;;;;;;;8.00;5.37;;;;;;;1.29;100.00;99672.47;691624;28;1246;-49
2021/12/07 00:18:58;;;;;;;8.38;5.40;;;;;;;1.25;100.00;99676.69;691794;28;3215;-49
2021/12/07 00:19:20;;;;;;;7.77;5.37;;;;;;;1.20;100.00;99675.72;689269;28;1126;-50
2021/12/07 00:19:40;;;;;;;6.82;5.25;;;;;;;1.23;100.00;99672.34;689054;28;4674;-50
2021/12/07 00:20:07;;;;;;;7.40;5.27;;;;;;;1.27;100.00;99671.53;690162;28;938;-52
2021/12/07 00:20:28;;;;;;;7.68;5.07;;;;;;;1.36;100.00;99675.16;689415;28;1214;-50
2021/12/07 00:20:48;;;;;;;8.13;5.10;;;;;;;1.38;100.00;99671.72;689500;28;1181;-49
2021/12/07 00:21:09;;;;;;;7.28;4.93;;;;;;;1.39;100.00;99673.47;689681;28;2833;-53
2021/12/07 00:21:29;;;;;;;7.53;5.03;;;;;;;1.36;100.00;99671.72;690438;28;1133;-49
2021/12/07 00:21:50;;;;;;;6.85;5.00;;;;;;;1.40;100.00;99664.88;688875;28;3508;-49
2021/12/07 00:22:11;;;;;;;7.13;5.05;;;;;;;1.32;100.00;99670.78;688113;28;1595;-49
2021/12/07 00:22:31;;;;;;;6.90;4.85;;;;;;;1.32;100.00;99659.63;688562;28;4563;-48
2021/12/07 00:22:56;;;;;;;7.13;4.97;;;;;;;1.33;100.00;99666.50;688491;28;796;-53
2021/12/07 00:23:17;;;;;;;8.65;5.32;;;;;;;1.44;100.00;99664.09;688270;28;1460;-48
2021/12/07 00:23:37;;;;;;;7.45;5.28;;;;;;;1.49;100.00;99665.03;689374;28;1233;-50
2021/12/07 00:23:58;;;;;;;7.20;4.97;;;;;;;1.55;100.00;99672.84;691567;28;1150;-52
2021/12/07 00:24:19;;;;;;;7.15;5.05;;;;;;;1.49;100.00;99675.34;691203;28;1166;-49
2021/12/07 00:24:40;;;;;;;7.22;5.22;;;;;;;1.39;100.00;99676.06;691395;28;3349;-49
2021/12/07 00:25:00;;;;;;;7.13;5.20;;;;;;;1.36;100.00;99677.72;692188;28;1499;-51
2021/12/07 00:25:20;;;;;;;7.07;5.00;;;;;;;1.44;100.00;99676.97;690871;28;4476;-48
2021/12/07 00:25:41;;;;;;;7.78;5.13;;;;;;;1.42;100.00;99676.94;692398;28;1162;-52
2021/12/07 00:26:02;;;;;;;7.20;5.00;;;;;;;1.29;100.00;99683.63;688973;28;1136;-50
2021/12/07 00:26:22;;;;;;;7.78;5.10;;;;;;;1.22;100.00;99674.06;688430;28;1139;-51
2021/12/07 00:26:43;;;;;;;7.80;5.40;;;;;;;1.23;100.00;99675.75;689212;28;1134;-51
2021/12/07 00:27:04;;;;;;;8.85;5.72;;;;;;;1.17;100.00;99673.97;688636;28;1243;-49
2021/12/07 00:27:25;;;;;;;8.27;5.55;;;;;;;1.13;100.00;99681.59;689618;28;3342;-48
2021/12/07 00:27:45;;;;;;;8.30;5.57;;;;;;;1.19;100.00;99684.28;689572;28;1072;-49
2021/12/07 00:28:06;;;;;;;8.75;5.70;;;;;;;1.26;100.00;99680.09;691666;28;1620;-49
2021/12/07 00:28:26;;;;;;;9.25;6.10;;;;;;;1.20;100.00;99686.03;689758;28;4492;-51
2021/12/07 00:28:49;;;;;;;8.93;6.00;;;;;;;1.17;100.00;99689.41;690679;28;1310;-52
2021/12/07 00:29:11;;;;;;;8.70;5.68;;;;;;;1.13;100.00;99684.19;687456;28;1555;-51
2021/12/07 00:29:31;;;;;;;8.20;5.43;;;;;;;1.13;100.00;99694.47;688573;28;988;-49
2021/12/07 00:29:52;;;;;;;8.05;5.35;;;;;;;1.08;100.00;99686.69;688731;28;1096;-49
2021/12/07 00:30:14;;;;;;;8.82;5.80;;;;;;;1.02;100.00;99681.41;689007;28;1994;-48
2021/12/07 00:30:36;;;;;;;7.75;5.63;;;;;;;1.16;100.00;99685.13;690421;28;1325;-50
2021/12/07 00:31:08;;;;;;;7.60;5.60;;;;;;;1.22;100.00;99684.34;688697;28;1312;-49
2021/12/07 00:31:38;;;;;;;8.55;5.95;;;;;;;1.14;100.00;99680.78;686130;28;4413;-49
2021/12/07 00:32:16;;;;;;;8.68;6.22;;;;;;;1.09;100.00;99690.13;685226;28;1119;-50
2021/12/07 00:32:41;;;;;;;8.90;5.90;;;;;;;1.14;100.00;99683.34;682985;28;1169;-51
2021/12/07 00:33:29;;;;;;;8.93;5.93;;;;;;;1.16;100.00;99681.66;686248;28;3251;-49
2021/12/07 00:34:07;;;;;;;8.40;5.57;;;;;;;1.11;100.00;99684.16;685233;28;2068;-50
2021/12/07 00:35:33;;;;;;;8.35;6.00;;;;;;;1.51;100.00;99682.25;689518;28;1296;-50
2021/12/07 00:35:54;;;;;;;9.35;5.82;;;;;;;1.50;100.00;99685.66;692224;28;4016;-49
2021/12/07 00:36:14;;;;;;;10.95;6.00;;;;;;;1.41;100.00;99682.06;691947;28;1336;-50
2021/12/07 00:36:37;;;;;;;10.37;6.03;;;;;;;1.33;100.00;99681.94;691876;28;1399;-49
2021/12/07 00:36:58;;;;;;;8.85;6.10;;;;;;;1.25;100.00;99688.69;691153;28;1084;-50
2021/12/07 00:37:19;;;;;;;9.25;6.32;;;;;;;1.18;100.00;99687.72;689200;28;1565;-50
2021/12/07 00:37:42;;;;;;;9.57;6.50;;;;;;;1.25;100.00;99689.56;688894;28;4782;-48
2021/12/07 00:38:24;;;;;;;9.65;6.28;;;;;;;1.21;100.00;99692.91;692063;28;1915;-49
2021/12/07 00:38:44;;;;;;;8.95;6.18;;;;;;;1.17;100.00;99681.69;689801;28;4532;-50
2021/12/07 00:39:07;;;;;;;9.85;6.40;;;;;;;1.32;100.00;99691.38;691919;28;1123;-51
2021/12/07 00:39:28;;;;;;;10.73;6.60;;;;;;;1.30;100.00;99687.94;693118;28;1310;-50
2021/12/07 00:39:49;;;;;;;10.65;7.13;;;;;;;1.37;100.00;99691.44;692905;28;4000;-52
2021/12/07 00:40:11;;;;;;;9.87;6.73;;;;;;;1.44;100.00;99689.84;690001;28;1365;-49
2021/12/07 00:40:32;;;;;;;8.38;5.95;;;;;;;1.49;100.00;99683.94;687579;28;4501;-49
2021/12/07 00:40:55;;;;;;;8.60;6.40;;;;;;;1.50;100.00;99689.97;689393;28;1093;-51
2021/12/07 00:41:16;;;;;;;8.55;6.00;;;;;;;1.46;100.00;99691.63;686931;28;1109;-49
2021/12/07 00:41:36;;;;;;;9.13;6.40;;;;;;;1.47;100.00;99685.63;684638;28;3064;-49
2021/12/07 00:41:58;;;;;;;9.30;6.37;;;;;;;1.55;100.00;99693.47;685966;28;1402;-49
2021/12/07 00:42:18;;;;;;;8.93;6.25;;;;;;;1.58;100.00;99684.91;686339;28;1545;-49
2021/12/07 00:42:39;;;;;;;8.52;6.47;;;;;;;1.54;100.00;99686.59;686667;28;1280;-52
2021/12/07 00:42:59;;;;;;;8.33;6.23;;;;;;;1.47;100.00;99689.94;684008;28;1152;-50
2021/12/07 00:43:20;;;;;;;8.17;5.87;;;;;;;1.39;100.00;99696.66;684383;28;1171;-50
2021/12/07 00:43:40;;;;;;;8.38;6.10;;;;;;;1.33;100.00;99695.69;685804;28;4415;-51
2021/12/07 00:44:02;;;;;;;8.13;6.40;;;;;;;1.28;100.00;99691.31;684393;28;1096;-50
2021/12/07 00:44:24;;;;;;;8.50;6.05;;;;;;;1.31;100.00;99683.63;685858;28;3172;-49
2021/12/07 00:44:45;;;;;;;8.68;6.30;;;;;;;1.26;100.00;99695.56;686749;28;1146;-50
2021/12/07 00:45:06;;;;;;;9.93;6.72;;;;;;;1.27;100.00;99693.00;687813;28;1437;-49
2021/12/07 00:45:28;;;;;;;9.07;6.80;;;;;;;1.22;100.00;99692.09;686229;28;1453;-49
2021/12/07 00:45:51;;;;;;;8.52;6.55;;;;;;;1.22;100.00;99692.09;686565;28;1041;-49
2021/12/07 00:46:13;;;;;;;9.07;6.90;;;;;;;1.22;100.00;99694.66;686537;28;1369;-51
2021/12/07 00:46:35;;;;;;;9.23;6.55;;;;;;;1.24;100.00;99695.53;686991;28;4360;-49
2021/12/07 00:46:55;;;;;;;9.70;6.57;;;;;;;1.39;100.00;99687.22;689504;28;1124;-49
2021/12/07 00:47:16;;;;;;;9.20;6.65;;;;;;;1.35;100.00;99691.44;689527;28;3398;-49
2021/12/07 00:47:37;;;;;;;8.63;6.73;;;;;;;1.41;100.00;99692.38;691811;28;948;-53
2021/12/07 00:47:58;;;;;;;8.73;6.40;;;;;;;1.47;100.00;99695.06;689934;28;1255;-50
2021/12/07 00:48:20;;;;;;;9.18;6.50;;;;;;;1.46;100.00;99693.34;689967;28;1107;-49
2021/12/07 00:48:40;;;;;;;9.80;6.47;;;;;;;1.42;100.00;99701.84;690692;28;1029;-49
2021/12/07 00:49:03;;;;;;;9.27;6.40;;;;;;;1.44;100.00;99697.56;690241;28;1079;-51
2021/12/07 00:49:23;;;;;;;8.63;6.20;;;;;;;1.39;100.00;99694.94;689827;28;4598;-50
2021/12/07 00:49:44;;;;;;;9.55;6.85;;;;;;;1.28;100.00;99697.31;690401;28;1421;-50
2021/12/07 00:50:08;;;;;;;10.50;7.27;;;;;;;1.22;100.00;99702.38;688696;28;3368;-51
2021/12/07 00:50:29;;;;;;;9.88;6.93;;;;;;;1.40;100.00;99698.38;688231;28;1143;-49
2021/12/07 00:50:50;;;;;;;9.55;6.82;;;;;;;1.33;100.00;99706.00;689634;28;1448;-49
2021/12/07 00:51:11;;;;;;;11.27;7.20;;;;;;;1.32;100.00;99705.97;689648;28;1127;-49
2021/12/07 00:51:31;;;;;;;10.20;7.00;;;;;;;1.29;100.00;99696.50;688804;28;1099;-51
2021/12/07 00:51:52;;;;;;;9.98;6.85;;;;;;;1.23;100.00;99698.94;690326;28;1146;-50
2021/12/07 00:52:12;;;;;;;10.00;7.20;;;;;;;1.17;100.00;99701.41;688690;28;1577;-49
2021/12/07 00:52:33;;;;;;;10.20;7.18;;;;;;;1.14;100.00;99698.78;685721;28;4335;-50
2021/12/07 00:52:54;;;;;;;10.73;7.00;;;;;;;1.11;100.00;99694.47;686300;28;3901;-50
2021/12/07 00:53:15;;;;;;;10.60;7.50;;;;;;;1.09;100.00;99697.84;686130;28;1458;-50
2021/12/07 00:53:36;;;;;;;9.88;7.10;;;;;;;1.06;100.00;99700.38;689134;28;1679;-51
2021/12/07 00:53:57;;;;;;;10.95;7.47;;;;;;;1.03;100.00;99703.75;689086;28;1076;-51
2021/12/07 00:54:18;;;;;;;11.20;7.57;;;;;;;1.06;100.00;99708.09;689181;28;1207;-50
2021/12/07 00:54:39;;;;;;;9.30;6.50;;;;;;;1.28;100.00;99702.47;694059;28;1193;-49
2021/12/07 00:55:06;;;;;;;9.13;6.00;;;;;;;1.39;100.00;99714.69;693413;28;1361;-50
2021/12/07 00:55:29;;;;;;;9.57;6.60;;;;;;;1.31;100.00;99710.25;691861;28;4448;-50
2021/12/07 00:55:52;;;;;;;10.40;7.38;;;;;;;1.25;100.00;99710.16;691975;28;3582;-50
2021/12/07 00:56:13;;;;;;;10.50;7.30;;;;;;;1.22;100.00;99699.81;690799;28;1422;-49
2021/12/07 00:56:34;;;;;;;9.48;7.25;;;;;;;1.17;100.00;99709.16;689880;28;1145;-50
2021/12/07 00:56:54;;;;;;;9.87;7.17;;;;;;;1.13;100.00;99709.94;689227;28;1414;-49
2021/12/07 00:57:15;;;;;;;9.75;6.68;;;;;;;1.18;100.00;99705.75;689149;28;921;-49
2021/12/07 00:57:36;;;;;;;9.50;6.10;;;;;;;1.18;100.00;99713.47;685175;28;1211;-49
2021/12/07 00:57:58;;;;;;;9.73;6.28;;;;;;;1.12;100.00;99709.06;686181;28;1473;-48
2021/12/07 00:58:23;;;;;;;9.95;6.65;;;;;;;1.09;100.00;99708.13;686892;28;1989;-49
2021/12/07 00:58:46;;;;;;;9.02;6.45;;;;;;;1.05;100.00;99714.06;686265;28;5205;-52
2021/12/07 00:59:07;;;;;;;10.45;7.00;;;;;;;1.01;100.00;99714.00;687366;28;1534;-54
2021/12/07 00:59:29;;;;;;;10.27;6.53;;;;;;;1.01;100.00;99716.59;690465;28;1926;-50
2021/12/07 00:59:50;;;;;;;9.27;6.20;;;;;;;0.98;100.00;99716.53;690744;28;1016;-49
2021/12/07 01:00:15;;;;;;;9.98;6.38;;;;;;;0.96;100.00;99707.91;690084;28;1302;-53
2021/12/07 01:00:35;;;;;;;10.15;6.40;;;;;;;0.97;100.00;99713.91;689362;28;908;-51
2021/12/07 01:01:03;;;;;;;9.13;6.23;;;;;;;0.95;100.00;99715.59;694549;28;1653;-49
2021/12/07 01:01:24;;;;;;;9.55;6.53;;;;;;;0.94;100.00;99717.31;691056;28;4822;-51
2021/12/07 01:01:44;;;;;;;9.03;6.30;;;;;;;0.93;100.00;99717.25;688503;28;1291;-49
2021/12/07 01:02:05;;;;;;;9.35;6.40;;;;;;;0.92;100.00;99710.41;688519;28;1228;-49
2021/12/07 01:02:25;;;;;;;9.60;6.18;;;;;;;0.92;100.00;99713.84;686882;28;1257;-49
2021/12/07 01:02:46;;;;;;;9.40;6.20;;;;;;;0.92;100.00;99715.56;682499;28;1049;-50
2021/12/07 01:03:08;;;;;;;9.20;6.28;;;;;;;0.92;100.00;99716.41;681212;28;1120;-51
2021/12/07 01:03:28;;;;;;;9.68;6.30;;;;;;;0.96;100.00;99717.34;681412;28;1259;-49
2021/12/07 01:03:51;;;;;;;10.02;6.03;;;;;;;1.15;100.00;99716.84;683716;28;1307;-49
2021/12/07 01:04:11;;;;;;;9.18;5.85;;;;;;;1.17;100.00;99720.28;687022;28;3304;-49
2021/12/07 01:04:32;;;;;;;8.93;5.70;;;;;;;1.14;100.00;99721.97;685787;28;4482;-50
2021/12/07 01:04:57;;;;;;;8.90;5.90;;;;;;;1.11;100.00;99719.31;688915;28;1174;-51
2021/12/07 01:05:22;;;;;;;8.73;5.85;;;;;;;1.05;100.00;99714.06;687762;28;1223;-50
2021/12/07 01:05:49;;;;;;;10.38;5.85;;;;;;;1.02;100.00;99728.63;689568;28;1044;-49
2021/12/07 01:06:25;;;;;;;7.68;5.38;;;;;;;1.02;100.00;99720.03;689511;28;1451;-49
2021/12/07 01:07:17;;;;;;;7.50;5.00;;;;;;;0.92;100.00;99721.56;686723;28;4035;-51
2021/12/07 01:24:44;;;;;;;6.00;3.58;;;;;;;0.90;100.00;99753.25;690975;28;1122;-49
2021/12/07 01:25:06;;;;;;;5.60;3.50;;;;;;;0.89;100.00;99754.06;690907;28;1164;-49
2021/12/07 01:25:32;;;;;;;6.38;3.65;;;;;;;0.89;100.00;99754.97;691282;28;4468;-48
2021/12/07 01:25:55;;;;;;;5.95;3.80;;;;;;;0.97;100.00;99745.69;692103;28;1162;-48
2021/12/07 01:26:15;;;;;;;5.82;3.55;;;;;;;0.93;100.00;99753.28;690727;28;2091;-49
2021/12/07 01:26:36;;;;;;;5.55;3.58;;;;;;;0.90;100.00;99759.28;690938;28;1406;-49
2021/12/07 01:26:58;;;;;;;5.00;3.20;;;;;;;0.88;100.00;99750.63;688182;28;3410;-50
2021/12/07 01:27:20;;;;;;;6.30;3.60;;;;;;;0.84;100.00;99756.56;687593;28;1314;-51
2021/12/07 01:27:42;;;;;;;5.90;3.40;;;;;;;0.83;100.00;99752.25;687547;28;1386;-50
2021/12/07 01:28:12;;;;;;;5.35;3.40;;;;;;;0.80;100.00;99755.66;685108;28;1099;-50
2021/12/07 01:28:40;;;;;;;5.93;3.60;;;;;;;0.89;100.00;99754.97;684592;28;4356;-49
2021/12/07 01:29:01;;;;;;;6.32;3.65;;;;;;;0.92;100.00;99754.16;688709;28;1522;-49
2021/12/07 01:29:25;;;;;;;5.68;3.60;;;;;;;0.89;100.00;99762.69;686697;28;1411;-49
2021/12/07 01:29:50;;;;;;;5.30;3.38;;;;;;;0.86;100.00;99757.47;689006;28;3417;-49
2021/12/07 01:30:20;;;;;;;6.15;3.90;;;;;;;0.82;100.00;99759.09;685178;28;1457;-51
2021/12/07 01:30:58;;;;;;;6.10;3.90;;;;;;;0.79;100.00;99761.63;683729;28;2594;-49
2021/12/07 01:31:27;;;;;;;5.78;3.78;;;;;;;0.74;100.00;99763.22;682506;28;1643;-49
2021/12/07 01:32:56;;;;;;;5.70;3.70;;;;;;;0.61;100.00;99771.50;682148;28;3131;-50
2021/12/07 01:35:58;;;;;;;5.10;3.33;;;;;;;0.61;100.00;99769.81;684465;28;3328;-50
2021/12/07 01:41:28;;;;;;;5.80;3.87;;;;;;;0.63;100.00;99777.56;694163;28;3422;-50
2021/12/07 01:43:33;;;;;;;6.90;4.22;;;;;;;0.61;100.00;99774.09;688546;28;998;-49
2021/12/07 01:44:07;;;;;;;5.88;4.10;;;;;;;0.55;100.00;99782.53;687987;28;4793;-49
2021/12/07 01:47:20;;;;;;;6.70;4.43;;;;;;;0.56;100.00;99781.72;687935;28;4450;-50
2021/12/07 01:48:06;;;;;;;6.78;4.15;;;;;;;0.42;100.00;99780.56;688016;28;1581;-51
2021/12/07 01:59:33;;;;;;;7.68;4.90;;;;;;;0.19;100.00;99801.44;688858;28;1179;-49
2021/12/07 01:59:54;;;;;;;7.68;4.63;;;;;;;0.21;100.00;99804.94;689792;28;1425;-51
2021/12/07 02:00:17;;;;;;;7.68;4.72;;;;;;;0.22;100.00;99803.22;689585;28;1224;-50
2021/12/07 02:00:42;;;;;;;7.25;4.60;;;;;;;0.18;100.00;99807.44;689956;28;1209;-50
2021/12/07 02:01:04;;;;;;;6.85;4.40;;;;;;;0.18;100.00;99807.44;685753;28;3263;-49
2021/12/07 02:01:25;;;;;;;6.40;4.20;;;;;;;0.20;100.00;99808.34;682218;28;4598;-50
2021/12/07 02:01:45;;;;;;;6.60;4.20;;;;;;;0.21;100.00;99806.63;683791;28;1608;-50
2021/12/07 02:02:10;;;;;;;7.25;4.40;;;;;;;0.22;100.00;99808.38;678001;28;1216;-50
2021/12/07 02:02:31;;;;;;;6.97;4.47;;;;;;;0.22;100.00;99813.50;681035;28;1068;-52
2021/12/07 02:02:52;;;;;;;6.82;4.50;;;;;;;0.23;100.00;99816.13;679702;29;1624;-49
2021/12/07 02:03:13;;;;;;;7.40;4.60;;;;;;;0.21;100.00;99810.09;679667;28;1376;-50
2021/12/07 02:03:34;;;;;;;6.50;4.43;;;;;;;0.19;100.00;99814.31;683339;28;2095;-50
2021/12/07 02:03:55;;;;;;;7.68;4.60;;;;;;;0.17;100.00;99811.69;687464;28;2247;-49
2021/12/07 02:04:16;;;;;;;7.50;4.70;;;;;;;0.14;100.00;99816.78;686390;28;1349;-49
2021/12/07 02:04:38;;;;;;;7.90;4.55;;;;;;;0.14;100.00;99821.06;682552;28;4443;-50
2021/12/07 02:04:59;;;;;;;8.13;4.55;;;;;;;0.11;100.00;99815.81;681872;28;1403;-50
2021/12/07 02:05:23;;;;;;;7.70;4.68;;;;;;;0.09;100.00;99813.22;680779;28;1298;-49
2021/12/07 02:05:44;;;;;;;7.43;4.68;;;;;;;0.09;100.00;99817.50;678888;29;1293;-51
2021/12/07 02:06:05;;;;;;;7.30;4.45;;;;;;;0.09;100.00;99810.66;683362;28;1243;-50
2021/12/07 02:06:26;;;;;;;7.22;4.50;;;;;;;0.12;100.00;99812.44;683431;28;1940;-50
2021/12/07 02:06:46;;;;;;;7.60;4.70;;;;;;;0.10;100.00;99816.69;685950;28;3570;-50
2021/12/07 02:07:07;;;;;;;8.07;4.50;;;;;;;0.11;100.00;99813.25;686911;28;1178;-50
2021/12/07 02:07:30;;;;;;;6.75;4.32;;;;;;;0.12;100.00;99817.56;686312;28;4528;-51
2021/12/07 02:07:50;;;;;;;7.27;4.63;;;;;;;0.09;100.00;99820.94;688288;28;1310;-51
2021/12/07 02:08:11;;;;;;;7.93;4.80;;;;;;;0.07;100.00;99821.72;686919;28;1157;-49
2021/12/07 02:08:31;;;;;;;6.90;4.68;;;;;;;0.08;100.00;99824.31;688521;28;1259;-51
2021/12/07 02:08:52;;;;;;;7.00;4.40;;;;;;;0.09;100.00;99818.38;686105;28;1219;-51
2021/12/07 02:09:13;;;;;;;7.05;4.40;;;;;;;0.09;100.00;99825.22;686371;28;1002;-49
2021/12/07 02:09:36;;;;;;;7.18;4.68;;;;;;;0.06;100.00;99822.56;682694;28;2042;-49
2021/12/07 02:10:03;;;;;;;7.57;4.75;;;;;;;0.06;100.00;99822.56;684209;28;1336;-49
2021/12/07 02:10:27;;;;;;;8.43;4.95;;;;;;;0.05;100.00;99820.84;682884;28;4773;-51
2021/12/07 02:10:55;;;;;;;7.32;5.15;;;;;;;0.03;100.00;99822.47;683795;28;1605;-49
2021/12/07 02:11:16;;;;;;;7.75;4.63;;;;;;;0.01;100.00;99830.16;683832;28;1309;-51
2021/12/07 02:11:45;;;;;;;7.13;4.93;;;;;;;0.02;100.00;99828.47;685815;28;1441;-50
2021/12/07 02:12:07;;;;;;;6.78;4.63;;;;;;;0.01;100.00;99830.16;683057;28;2047;-51
2021/12/07 02:12:28;;;;;;;7.03;4.80;;;;;;;0.03;100.00;99830.19;682295;28;3777;-51
2021/12/07 02:12:51;;;;;;;7.30;4.80;;;;;;;0.05;100.00;99826.81;686823;28;1543;-49
2021/12/07 02:14:15;;;;;;;8.88;5.32;;;;;;;0.10;100.00;99839.81;685276;28;5164;-49
2021/12/07 02:14:36;;;;;;;9.50;5.03;;;;;;;0.08;100.00;99836.31;679848;28;1323;-49
2021/12/07 02:14:57;;;;;;;8.45;4.93;;;;;;;0.06;100.00;99833.72;681133;28;3339;-49
2021/12/07 02:15:21;;;;;;;9.03;5.57;;;;;;;0.09;100.00;99838.06;683342;28;3803;-49
2021/12/07 02:15:41;;;;;;;7.65;5.22;;;;;;;0.05;100.00;99844.81;680350;28;1387;-53
2021/12/07 02:16:02;;;;;;;8.13;5.10;;;;;;;0.04;100.00;99844.78;682576;28;1239;-50
2021/12/07 02:16:26;;;;;;;8.45;5.00;;;;;;;0.03;100.00;99840.47;683489;28;4456;-50
2021/12/07 02:16:50;;;;;;;7.32;4.80;;;;;;;0.02;100.00;99844.75;684882;28;1228;-50
2021/12/07 02:17:16;;;;;;;8.45;5.15;;;;;;;0.03;100.00;99848.19;686719;28;1506;-50
2021/12/07 02:17:41;;;;;;;8.05;4.72;;;;;;;0.05;100.00;99846.53;694519;28;1311;-49
2021/12/07 02:18:02;;;;;;;7.15;4.85;;;;;;;0.05;100.00;99844.81;688936;28;3645;-50
2021/12/07 02:18:24;;;;;;;8.45;5.55;;;;;;;0.07;100.00;99855.13;685265;28;1914;-48
2021/12/07 02:18:44;;;;;;;7.47;5.13;;;;;;;0.09;100.00;99851.78;684783;28;1154;-50
2021/12/07 02:19:05;;;;;;;7.77;5.30;;;;;;;0.10;100.00;99845.81;685892;28;1108;-49
2021/12/07 02:19:25;;;;;;;7.30;5.07;;;;;;;0.12;100.00;99850.97;684760;28;4599;-50
2021/12/07 02:19:46;;;;;;;7.78;5.30;;;;;;;0.14;100.00;99851.91;685190;28;1024;-49
2021/12/07 02:20:08;;;;;;;8.33;5.23;;;;;;;0.13;100.00;99845.88;687118;28;1161;-49
2021/12/07 02:20:30;;;;;;;7.65;5.00;;;;;;;0.12;100.00;99848.41;686063;28;1458;-51
2021/12/07 02:20:51;;;;;;;8.23;5.43;;;;;;;0.11;100.00;99851.81;688318;28;3520;-52
2021/12/07 02:21:24;;;;;;;7.85;5.40;;;;;;;0.11;100.00;99849.22;688735;28;1269;-50
2021/12/07 02:21:53;;;;;;;9.07;5.35;;;;;;;0.10;100.00;99855.22;687446;28;1492;-50
2021/12/07 02:22:22;;;;;;;9.30;5.47;;;;;;;0.13;100.00;99856.16;686071;28;4608;-50
2021/12/07 02:22:46;;;;;;;7.45;5.28;;;;;;;0.11;100.00;99862.09;682041;28;1704;-50
2021/12/07 02:23:08;;;;;;;8.02;5.00;;;;;;;0.10;100.00;99858.66;683037;28;1278;-51
2021/12/07 02:23:29;;;;;;;7.88;5.22;;;;;;;0.10;100.00;99857.81;680973;28;1813;-49
2021/12/07 02:23:51;;;;;;;7.67;5.27;;;;;;;0.10;100.00;99856.09;683237;28;3535;-53
2021/12/07 02:24:14;;;;;;;6.88;5.10;;;;;;;0.12;100.00;99863.84;686157;28;1612;-49
2021/12/07 02:24:35;;;;;;;7.55;5.20;;;;;;;0.11;100.00;99860.41;688969;28;1167;-49
2021/12/07 02:24:55;;;;;;;7.80;5.20;;;;;;;0.10;100.00;99860.38;691261;28;1221;-51
2021/12/07 02:25:17;;;;;;;7.63;5.22;;;;;;;0.11;100.00;99857.84;689039;28;1175;-50
2021/12/07 02:25:38;;;;;;;8.23;5.10;;;;;;;0.12;100.00;99861.25;685716;28;4513;-49
2021/12/07 02:25:58;;;;;;;8.07;5.30;;;;;;;0.15;100.00;99869.03;686365;28;1275;-49
2021/12/07 02:26:20;;;;;;;7.87;5.40;;;;;;;0.31;100.00;99866.00;686131;28;3066;-49
2021/12/07 02:26:41;;;;;;;7.45;5.20;;;;;;;0.28;100.00;99865.09;686021;28;3667;-49
2021/12/07 02:27:02;;;;;;;7.85;5.13;;;;;;;0.28;100.00;99865.94;688915;28;1801;-49
2021/12/07 02:27:23;;;;;;;7.95;5.13;;;;;;;0.29;100.00;99861.66;691117;28;1032;-50
2021/12/07 02:27:45;;;;;;;7.30;4.70;;;;;;;0.28;100.00;99865.94;692014;28;1017;-50
2021/12/07 02:28:12;;;;;;;6.97;4.90;;;;;;;0.27;100.00;99873.63;688954;28;1199;-50
2021/12/07 02:28:38;;;;;;;6.95;5.10;;;;;;;0.36;100.00;99868.72;689353;28;4518;-49
2021/12/07 02:28:59;;;;;;;7.28;5.00;;;;;;;0.33;100.00;99869.50;691397;28;1465;-49
2021/12/07 02:29:20;;;;;;;8.05;5.25;;;;;;;0.32;100.00;99867.75;688284;28;4262;-49
2021/12/07 02:29:41;;;;;;;8.48;5.70;;;;;;;0.34;100.00;99866.06;686103;28;1451;-49
2021/12/07 02:30:05;;;;;;;8.98;6.28;;;;;;;0.27;100.00;99874.47;685082;28;1339;-51
2021/12/07 02:30:26;;;;;;;8.65;5.75;;;;;;;0.22;100.00;99870.94;683650;28;1223;-49
2021/12/07 02:30:46;;;;;;;8.13;5.75;;;;;;;0.24;100.00;99871.84;681959;28;1333;-50
2021/12/07 02:31:09;;;;;;;8.90;5.93;;;;;;;0.23;100.00;99872.66;684073;28;1299;-49
2021/12/07 02:31:31;;;;;;;9.05;5.68;;;;;;;0.24;100.00;99873.56;683720;28;4429;-50
2021/12/07 02:31:53;;;;;;;8.07;5.38;;;;;;;0.22;100.00;99870.94;686042;28;1402;-50
2021/12/07 02:32:14;;;;;;;8.90;6.07;;;;;;;0.22;100.00;99876.06;685356;28;5035;-50
2021/12/07 02:32:35;;;;;;;8.52;5.90;;;;;;;0.22;100.00;99876.06;683961;28;1145;-51
2021/12/07 02:32:56;;;;;;;8.25;5.93;;;;;;;0.21;100.00;99868.31;682991;28;1037;-50
2021/12/07 02:33:16;;;;;;;9.57;6.20;;;;;;;0.24;100.00;99871.84;681745;28;1856;-51